createdAt,value
2024-02-02T02:20:34.296Z,11.70
2024-02-02T02:21:34.701Z,11.20
2024-02-02T02:22:35.579Z,11.80
2024-02-02T02:23:36.460Z,12.20
2024-02-02T02:24:37.396Z,12.60
2024-02-02T02:25:38.404Z,12.60
2024-02-02T02:26:38.773Z,12.50
2024-02-02T02:27:39.655Z,12.30
2024-02-02T02:28:40.545Z,12.20
2024-02-02T02:29:41.421Z,12.50
2024-02-02T02:30:42.341Z,12.80
2024-02-02T02:31:43.239Z,12.90
2024-02-02T02:32:44.151Z,12.60
2024-02-02T02:33:45.303Z,13.20
2024-02-02T02:34:45.786Z,12.50
2024-02-02T02:35:46.888Z,13.00
2024-02-02T02:36:47.251Z,13.30
2024-02-02T02:37:48.121Z,13.10
2024-02-02T02:38:49.023Z,13.70
2024-02-02T02:39:49.880Z,13.00
2024-02-02T02:40:50.800Z,12.90
2024-02-02T02:41:51.698Z,13.60
2024-02-02T02:42:52.566Z,14.10
2024-02-02T02:43:53.462Z,13.70
2024-02-02T02:44:54.327Z,14.20
2024-02-02T02:45:55.242Z,13.70
2024-02-02T02:46:56.122Z,14.00
2024-02-02T02:47:57.126Z,13.60
2024-02-02T02:48:57.666Z,14.70
2024-02-02T02:49:58.089Z,13.90
2024-02-02T02:50:59.186Z,13.70
2024-02-02T02:51:59.537Z,13.90
2024-02-02T02:53:00.435Z,14.10
2024-02-02T02:54:01.303Z,14.00
2024-02-02T02:55:02.198Z,14.40
2024-02-02T02:56:03.108Z,14.10
2024-02-02T02:57:04.012Z,13.90
2024-02-02T02:58:04.857Z,14.60
2024-02-02T02:59:05.742Z,14.10
2024-02-02T03:00:06.652Z,14.20
2024-02-02T03:01:07.731Z,13.30
2024-02-02T03:02:08.064Z,13.40
2024-02-02T03:03:09.055Z,14.00
2024-02-02T03:04:09.524Z,14.00
2024-02-02T03:05:10.384Z,13.30
2024-02-02T03:06:11.412Z,13.40
2024-02-02T03:07:11.994Z,13.60
2024-02-02T03:08:12.389Z,14.10
2024-02-02T03:09:13.303Z,13.40
2024-02-02T03:10:14.154Z,13.30
2024-02-02T03:11:15.073Z,12.70
2024-02-02T03:12:15.990Z,13.20
2024-02-02T03:13:16.824Z,12.70
2024-02-02T03:14:17.705Z,12.30
2024-02-02T03:15:18.642Z,12.60
2024-02-02T03:16:19.620Z,12.60
2024-02-02T03:17:19.988Z,12.40
2024-02-02T03:18:21.083Z,12.70
2024-02-02T03:19:21.645Z,12.70
2024-02-02T03:20:22.026Z,12.30
2024-02-02T03:21:23.126Z,12.70
2024-02-02T03:22:23.484Z,12.40
2024-02-02T03:23:24.361Z,12.90
2024-02-02T03:24:25.286Z,13.00
2024-02-02T03:25:26.127Z,13.20
2024-02-02T03:26:27.160Z,12.60
2024-02-02T03:27:27.622Z,12.90
2024-02-02T03:28:28.461Z,12.70
2024-02-02T03:29:29.338Z,12.80
2024-02-02T03:30:30.242Z,12.90
2024-02-02T03:31:31.124Z,13.70
2024-02-02T03:32:32.043Z,13.90
2024-02-02T03:33:33.022Z,13.20
2024-02-02T03:34:33.490Z,13.50
2024-02-02T03:35:34.367Z,13.10
2024-02-02T03:36:35.375Z,15.00
2024-02-02T03:37:36.237Z,16.40
2024-02-02T03:38:37.108Z,14.70
2024-02-02T03:39:38.046Z,16.60
2024-02-02T03:40:38.888Z,16.60
2024-02-02T03:41:39.794Z,15.20
2024-02-02T03:42:40.688Z,14.80
2024-02-02T03:43:41.559Z,17.80
2024-02-02T03:44:42.438Z,16.70
2024-02-02T03:45:43.318Z,20.00
2024-02-02T03:46:44.341Z,19.20
2024-02-02T03:47:44.750Z,21.00
2024-02-02T03:48:45.665Z,20.40
2024-02-02T03:49:46.565Z,17.40
2024-02-02T03:50:47.421Z,17.50
2024-02-02T03:51:48.339Z,18.20
2024-02-02T03:52:49.199Z,15.90
2024-02-02T03:53:50.113Z,17.20
2024-02-02T03:54:50.962Z,16.90
2024-02-02T03:55:51.840Z,18.00
2024-02-02T03:56:52.822Z,20.60
2024-02-02T03:57:53.680Z,20.80
2024-02-02T03:58:54.548Z,16.50
2024-02-02T03:59:55.469Z,15.80
2024-02-02T04:00:56.324Z,17.10
2024-02-02T04:01:57.329Z,17.40
2024-02-02T04:02:57.777Z,17.90
2024-02-02T04:03:58.683Z,18.60
2024-02-02T04:04:59.670Z,18.80
2024-02-02T04:06:00.563Z,19.50
2024-02-02T04:07:01.513Z,21.90
2024-02-02T04:08:02.340Z,20.60
2024-02-02T04:09:03.282Z,16.80
2024-02-02T04:10:04.148Z,21.60
2024-02-02T04:11:05.011Z,20.90
2024-02-02T04:12:05.998Z,17.50
2024-02-02T04:13:06.820Z,21.20
2024-02-02T04:14:07.702Z,23.50
2024-02-02T04:15:08.636Z,25.00
2024-02-02T04:16:09.483Z,26.30
2024-02-02T04:17:10.515Z,20.70
2024-02-02T04:18:11.042Z,22.80
2024-02-02T04:19:11.495Z,25.50
2024-02-02T04:20:12.361Z,25.30
2024-02-02T04:21:13.282Z,27.90
2024-02-02T04:22:14.199Z,27.60
2024-02-02T04:23:15.049Z,24.90
2024-02-02T04:24:16.000Z,23.70
2024-02-02T04:25:16.861Z,26.90
2024-02-02T04:26:17.739Z,22.70
2024-02-02T04:27:18.756Z,23.10
2024-02-02T04:28:19.159Z,28.70
2024-02-02T04:29:20.019Z,33.70
2024-02-02T04:30:20.949Z,31.60
2024-02-02T04:31:21.814Z,29.90
2024-02-02T04:32:22.715Z,31.30
2024-02-02T04:33:23.719Z,32.30
2024-02-02T04:34:24.395Z,36.10
2024-02-02T04:35:24.830Z,32.90
2024-02-02T04:36:25.811Z,26.20
2024-02-02T04:37:26.363Z,29.90
2024-02-02T04:38:26.731Z,35.70
2024-02-02T04:39:27.693Z,34.30
2024-02-02T04:40:28.549Z,38.00
2024-02-02T04:41:29.458Z,37.60
2024-02-02T04:42:30.486Z,28.20
2024-02-02T04:43:30.905Z,32.20
2024-02-02T04:44:31.749Z,35.80
2024-02-02T04:45:32.707Z,40.00
2024-02-02T04:46:33.573Z,42.80
2024-02-02T04:47:34.531Z,40.20
2024-02-02T04:48:35.544Z,37.10
2024-02-02T04:49:36.043Z,40.00
2024-02-02T04:50:36.926Z,37.40
2024-02-02T04:51:37.942Z,39.00
2024-02-02T04:52:38.949Z,40.80
2024-02-02T04:53:39.311Z,42.20
2024-02-02T04:54:40.197Z,39.90
2024-02-02T04:55:41.118Z,39.10
2024-02-02T04:56:41.994Z,36.90
2024-02-02T04:57:42.915Z,41.50
2024-02-02T04:58:43.796Z,35.60
2024-02-02T04:59:44.676Z,36.20
2024-02-02T05:00:45.688Z,40.90
2024-02-02T05:01:46.553Z,41.20
2024-02-02T05:02:47.475Z,40.00
2024-02-02T05:03:48.495Z,38.80
2024-02-02T05:04:48.873Z,41.00
2024-02-02T05:05:49.746Z,39.90
2024-02-02T05:06:50.630Z,34.90
2024-02-02T05:07:51.592Z,39.90
2024-02-02T05:08:52.483Z,41.20
2024-02-02T05:09:53.330Z,40.30
2024-02-02T05:10:54.216Z,38.90
2024-02-02T05:11:55.139Z,43.20
2024-02-02T05:12:56.192Z,46.00
2024-02-02T05:13:56.542Z,47.10
2024-02-02T05:14:57.431Z,43.60
2024-02-02T05:15:58.310Z,43.80
2024-02-02T05:16:58.915Z,43.80
2024-02-02T05:18:00.022Z,40.40
2024-02-02T05:19:00.539Z,47.70
2024-02-02T05:20:00.975Z,49.50
2024-02-02T05:21:01.876Z,48.50
2024-02-02T05:22:02.796Z,46.90
2024-02-02T05:23:03.852Z,45.90
2024-02-02T05:24:15.910Z,47.40
2024-02-02T05:25:05.980Z,48.00
2024-02-02T05:26:05.841Z,49.60
2024-02-02T05:27:06.746Z,46.40
2024-02-02T05:28:07.837Z,54.20
2024-02-02T05:29:08.213Z,50.80
2024-02-02T05:30:09.146Z,48.30
2024-02-02T05:31:09.988Z,47.50
2024-02-02T05:32:10.862Z,48.50
2024-02-02T05:33:11.874Z,49.00
2024-02-02T05:34:12.416Z,51.30
2024-02-02T05:35:12.858Z,48.80
2024-02-02T05:36:13.759Z,47.10
2024-02-02T05:37:14.605Z,46.30
2024-02-02T05:38:15.655Z,47.10
2024-02-02T05:39:16.087Z,44.10
2024-02-02T05:40:16.949Z,41.90
2024-02-02T05:41:17.830Z,40.70
2024-02-02T05:42:18.768Z,43.90
2024-02-02T05:43:19.616Z,44.30
2024-02-02T05:44:20.496Z,38.30
2024-02-02T05:45:21.389Z,42.10
2024-02-02T05:46:22.253Z,45.00
2024-02-02T05:47:23.141Z,40.50
2024-02-02T05:48:24.118Z,40.10
2024-02-02T05:49:25.158Z,39.70
2024-02-02T05:50:25.603Z,37.20
2024-02-02T05:51:26.598Z,35.60
2024-02-02T05:52:27.441Z,38.10
2024-02-02T05:53:28.483Z,41.70
2024-02-02T05:54:28.963Z,34.10
2024-02-02T05:55:29.355Z,34.10
2024-02-02T05:56:30.243Z,36.10
2024-02-02T05:57:31.200Z,33.10
2024-02-02T05:58:32.246Z,32.20
2024-02-02T05:59:32.633Z,31.60
2024-02-02T06:00:33.512Z,29.50
2024-02-02T06:01:34.404Z,30.20
2024-02-02T06:02:35.288Z,30.50
2024-02-02T06:03:36.321Z,29.80
2024-02-02T06:04:36.764Z,28.40
2024-02-02T06:05:37.685Z,28.40
2024-02-02T06:06:38.664Z,31.10
2024-02-02T06:07:39.069Z,29.10
2024-02-02T06:08:40.139Z,28.70
2024-02-02T06:09:40.553Z,28.10
2024-02-02T06:10:41.512Z,20.30
2024-02-02T06:11:42.371Z,23.90
2024-02-02T06:12:43.276Z,21.50
2024-02-02T06:13:44.276Z,22.30
2024-02-02T06:14:44.663Z,23.00
2024-02-02T06:15:45.574Z,22.20
2024-02-02T06:16:46.461Z,18.80
2024-02-02T06:17:47.367Z,20.80
2024-02-02T06:18:48.422Z,22.40
2024-02-02T06:19:48.986Z,18.40
2024-02-02T06:20:49.858Z,22.10
2024-02-02T06:21:50.738Z,19.80
2024-02-02T06:22:51.645Z,21.00
2024-02-02T06:23:52.708Z,19.40
2024-02-02T06:24:53.065Z,16.80
2024-02-02T06:25:53.935Z,18.80
2024-02-02T06:26:54.826Z,19.10
2024-02-02T06:27:55.693Z,18.70
2024-02-02T06:28:56.692Z,17.90
2024-02-02T06:29:57.562Z,18.30
2024-02-02T06:30:58.410Z,17.70
2024-02-02T06:31:59.292Z,16.40
2024-02-02T06:33:00.314Z,16.50
2024-02-02T06:34:00.872Z,16.60
2024-02-02T06:35:01.569Z,16.80
2024-02-02T06:36:02.100Z,16.10
2024-02-02T06:37:02.969Z,15.50
2024-02-02T06:38:03.860Z,16.10
2024-02-02T06:39:04.921Z,16.30
2024-02-02T06:40:05.683Z,16.40
2024-02-02T06:41:06.060Z,13.30
2024-02-02T06:42:07.006Z,14.40
2024-02-02T06:43:07.916Z,15.50
2024-02-02T06:44:08.817Z,14.60
2024-02-02T06:45:09.740Z,15.00
2024-02-02T06:46:10.598Z,14.70
2024-02-02T06:47:11.482Z,12.80
2024-02-02T06:48:12.496Z,13.90
2024-02-02T06:49:13.308Z,13.80
2024-02-02T06:50:13.842Z,14.00
2024-02-02T06:51:14.820Z,13.10
2024-02-02T06:52:15.668Z,14.10
2024-02-02T06:53:16.579Z,13.80
2024-02-02T06:54:17.611Z,14.20
2024-02-02T06:55:18.487Z,13.60
2024-02-02T06:56:19.364Z,13.00
2024-02-02T06:57:20.326Z,12.90
2024-02-02T06:58:21.185Z,12.30
2024-02-02T06:59:22.104Z,11.60
2024-02-02T07:00:23.016Z,12.00
2024-02-02T07:01:23.900Z,12.10
2024-02-02T07:02:24.759Z,10.50
2024-02-02T07:03:25.750Z,11.70
2024-02-02T07:04:26.346Z,11.20
2024-02-02T07:05:26.751Z,10.90
2024-02-02T07:06:27.784Z,12.10
2024-02-02T07:07:28.181Z,11.70
2024-02-02T07:08:29.048Z,11.10
2024-02-02T07:09:30.057Z,10.90
2024-02-02T07:10:30.909Z,11.60
2024-02-02T07:11:34.138Z,11.80
2024-02-02T07:12:32.702Z,10.60
2024-02-02T07:13:33.111Z,10.80
2024-02-02T07:14:34.032Z,11.40
2024-02-02T07:15:34.997Z,10.70
2024-02-02T07:16:35.415Z,9.70
2024-02-02T07:17:36.424Z,10.00
2024-02-02T07:18:37.558Z,9.60
2024-02-02T07:19:38.281Z,9.90
2024-02-02T07:20:38.685Z,9.10
2024-02-02T07:21:39.603Z,9.70
2024-02-02T07:22:40.471Z,10.40
2024-02-02T07:23:41.342Z,10.80
2024-02-02T07:24:42.467Z,10.00
2024-02-02T07:25:42.806Z,10.00
2024-02-02T07:26:43.692Z,9.80
2024-02-02T07:27:44.566Z,10.10
2024-02-02T07:28:45.447Z,8.50
2024-02-02T07:29:46.428Z,9.30
2024-02-02T07:30:47.304Z,9.20
2024-02-02T07:31:48.246Z,8.60
2024-02-02T07:32:49.149Z,8.70
2024-02-02T07:33:50.148Z,7.70
2024-02-02T07:34:50.919Z,7.40
2024-02-02T07:35:51.337Z,8.60
2024-02-02T07:36:52.221Z,8.30
2024-02-02T07:37:53.093Z,8.00
2024-02-02T07:38:53.995Z,8.50
2024-02-02T07:39:54.903Z,7.60
2024-02-02T07:40:55.753Z,7.70
2024-02-02T07:41:56.662Z,8.30
2024-02-02T07:42:57.568Z,7.60
2024-02-02T07:43:58.432Z,8.10
2024-02-02T07:44:59.391Z,7.70
2024-02-02T07:46:00.263Z,6.90
2024-02-02T07:47:01.141Z,7.20
2024-02-02T07:48:02.128Z,7.50
2024-02-02T07:49:02.592Z,7.10
2024-02-02T07:50:03.499Z,7.80
2024-02-02T07:51:04.428Z,7.60
2024-02-02T07:52:05.282Z,8.30
2024-02-02T07:53:06.175Z,7.40
2024-02-02T07:54:07.097Z,7.60
2024-02-02T07:55:08.009Z,7.00
2024-02-02T07:56:08.843Z,7.80
2024-02-02T07:57:09.771Z,7.50
2024-02-02T07:58:10.610Z,6.60
2024-02-02T07:59:11.494Z,7.80
2024-02-02T08:00:12.551Z,7.70
2024-02-02T08:01:13.004Z,6.70
2024-02-02T08:02:13.477Z,7.40
2024-02-02T08:03:14.451Z,7.20
2024-02-02T08:04:15.391Z,6.40
2024-02-02T08:05:16.355Z,6.10
2024-02-02T08:06:17.287Z,6.90
2024-02-02T08:07:18.249Z,6.60
2024-02-02T08:08:19.131Z,7.10
2024-02-02T08:09:20.136Z,6.10
2024-02-02T08:10:20.690Z,7.10
2024-02-02T08:11:21.045Z,6.80
2024-02-02T08:12:21.984Z,6.70
2024-02-02T08:13:22.826Z,6.10
2024-02-02T08:14:23.705Z,5.60
2024-02-02T08:15:24.654Z,7.00
2024-02-02T08:16:25.496Z,7.40
2024-02-02T08:17:26.388Z,7.60
2024-02-02T08:18:27.402Z,6.00
2024-02-02T08:19:27.909Z,7.00
2024-02-02T08:20:28.400Z,7.00
2024-02-02T08:21:29.330Z,7.20
2024-02-02T08:22:30.189Z,7.10
2024-02-02T08:23:31.072Z,7.10
2024-02-02T08:24:32.012Z,7.00
2024-02-02T08:25:32.950Z,6.90
2024-02-02T08:26:33.833Z,6.50
2024-02-02T08:27:34.726Z,7.30
2024-02-02T08:28:42.524Z,7.30
2024-02-02T08:29:37.405Z,7.80
2024-02-02T08:30:37.426Z,7.80
2024-02-02T08:31:37.845Z,6.90
2024-02-02T08:32:38.750Z,7.50
2024-02-02T08:33:39.641Z,7.10
2024-02-02T08:34:40.568Z,7.40
2024-02-02T08:35:41.547Z,6.30
2024-02-02T08:36:42.430Z,6.50
2024-02-02T08:37:43.314Z,7.60
2024-02-02T08:38:44.201Z,6.90
2024-02-02T08:39:45.100Z,7.50
2024-02-02T08:40:46.371Z,7.10
2024-02-02T08:41:46.818Z,7.40
2024-02-02T08:42:47.712Z,7.30
2024-02-02T08:43:49.161Z,5.00
2024-02-02T08:44:49.098Z,7.90
2024-02-02T08:45:50.053Z,7.50
2024-02-02T08:46:50.913Z,6.20
2024-02-02T08:47:51.837Z,7.00
2024-02-02T08:48:52.927Z,6.80
2024-02-02T08:49:53.434Z,7.70
2024-02-02T08:50:54.354Z,6.40
2024-02-02T08:51:55.278Z,7.90
2024-02-02T08:52:56.161Z,8.10
2024-02-02T08:53:57.087Z,8.10
2024-02-02T08:54:57.963Z,8.50
2024-02-02T08:55:59.006Z,8.30
2024-02-02T08:56:59.386Z,7.80
2024-02-02T08:58:00.246Z,8.40
2024-02-02T08:59:01.138Z,7.40
2024-02-02T09:00:02.053Z,8.30
2024-02-02T09:01:03.022Z,8.20
2024-02-02T09:02:03.889Z,8.30
2024-02-02T09:03:05.978Z,8.50
2024-02-02T09:04:05.756Z,8.00
2024-02-02T09:05:06.137Z,7.30
2024-02-02T09:06:07.204Z,8.10
2024-02-02T09:07:07.721Z,7.90
2024-02-02T09:08:08.603Z,7.00
2024-02-02T09:09:09.637Z,7.80
2024-02-02T09:10:10.279Z,8.00
2024-02-02T09:11:10.889Z,8.40
2024-02-02T09:12:11.269Z,7.30
2024-02-02T09:13:12.138Z,8.00
2024-02-02T09:14:13.014Z,7.90
2024-02-02T09:15:13.959Z,7.30
2024-02-02T09:16:14.832Z,7.30
2024-02-02T09:17:15.721Z,7.60
2024-02-02T09:18:16.663Z,8.50
2024-02-02T09:19:17.592Z,8.00
2024-02-02T09:20:18.440Z,8.20
2024-02-02T09:21:19.482Z,8.80
2024-02-02T09:22:19.848Z,8.00
2024-02-02T09:23:20.716Z,8.60
2024-02-02T09:24:21.650Z,8.50
2024-02-02T09:25:22.495Z,8.90
2024-02-02T09:26:23.582Z,9.20
2024-02-02T09:27:24.025Z,8.80
2024-02-02T09:28:24.933Z,8.50
2024-02-02T09:29:25.450Z,8.60
2024-02-02T09:30:26.452Z,9.40
2024-02-02T09:31:27.364Z,9.40
2024-02-02T09:32:28.263Z,8.00
2024-02-02T09:33:29.228Z,9.60
2024-02-02T09:34:30.165Z,9.50
2024-02-02T09:35:31.025Z,9.70
2024-02-02T09:36:31.952Z,7.60
2024-02-02T09:37:32.828Z,8.20
2024-02-02T09:38:33.701Z,9.80
2024-02-02T09:39:34.292Z,8.40
2024-02-02T09:40:35.141Z,8.60
2024-02-02T09:41:36.080Z,8.70
2024-02-02T09:42:37.007Z,8.10
2024-02-02T09:43:37.859Z,9.20
2024-02-02T09:44:38.723Z,9.60
2024-02-02T09:45:39.743Z,9.10
2024-02-02T09:46:40.236Z,9.60
2024-02-02T09:47:41.228Z,10.00
2024-02-02T09:48:42.293Z,9.60
2024-02-02T09:49:42.804Z,7.90
2024-02-02T09:50:43.688Z,9.50
2024-02-02T09:51:44.619Z,10.00
2024-02-02T09:52:45.503Z,9.10
2024-02-02T09:53:46.450Z,9.00
2024-02-02T09:54:47.343Z,9.40
2024-02-02T09:55:48.228Z,9.30
2024-02-02T09:56:49.278Z,9.50
2024-02-02T09:57:49.624Z,8.30
2024-02-02T09:58:50.501Z,10.10
2024-02-02T09:59:51.378Z,8.30
2024-02-02T10:00:52.316Z,9.60
2024-02-02T10:01:53.327Z,7.70
2024-02-02T10:02:53.707Z,10.40
2024-02-02T10:03:54.652Z,10.20
2024-02-02T10:04:55.508Z,10.50
2024-02-02T10:05:56.460Z,10.10
2024-02-02T10:06:57.419Z,10.70
2024-02-02T10:07:57.838Z,10.90
2024-02-02T10:08:58.732Z,9.70
2024-02-02T10:09:59.419Z,9.60
2024-02-02T10:11:00.300Z,10.30
2024-02-02T10:12:01.405Z,8.40
2024-02-02T10:13:01.731Z,9.90
2024-02-02T10:14:02.625Z,11.00
2024-02-02T10:15:04.789Z,11.10
2024-02-02T10:16:04.481Z,9.90
2024-02-02T10:17:05.497Z,9.70
2024-02-02T10:18:05.985Z,11.00
2024-02-02T10:19:06.562Z,11.30
2024-02-02T10:20:07.028Z,11.80
2024-02-02T10:21:08.308Z,11.90
2024-02-02T10:22:08.748Z,10.80
2024-02-02T10:23:09.625Z,11.30
2024-02-02T10:24:15.631Z,11.80
2024-02-02T10:25:12.275Z,10.50
2024-02-02T10:26:12.156Z,11.60
2024-02-02T10:27:13.110Z,12.20
2024-02-02T10:28:13.963Z,11.90
2024-02-02T10:29:14.844Z,11.30
2024-02-02T10:30:15.762Z,12.00
2024-02-02T10:31:16.604Z,10.90
2024-02-02T10:32:17.514Z,9.60
2024-02-02T10:33:18.544Z,10.80
2024-02-02T10:34:19.079Z,11.80
2024-02-02T10:35:19.448Z,11.70
2024-02-02T10:36:20.387Z,11.20
2024-02-02T10:37:20.966Z,11.40
2024-02-02T10:38:21.844Z,12.60
2024-02-02T10:39:22.749Z,12.20
2024-02-02T10:40:23.246Z,12.50
2024-02-02T10:41:24.135Z,12.40
2024-02-02T10:42:25.212Z,12.30
2024-02-02T10:43:25.568Z,11.50
2024-02-02T10:44:26.465Z,11.40
2024-02-02T10:45:27.394Z,11.70
2024-02-02T10:46:28.263Z,13.00
2024-02-02T10:47:29.296Z,13.20
2024-02-02T10:48:29.913Z,13.30
2024-02-02T10:49:30.380Z,13.10
2024-02-02T10:50:31.258Z,12.70
2024-02-02T10:51:32.278Z,13.20
2024-02-02T10:52:32.711Z,12.60
2024-02-02T10:53:33.592Z,13.40
2024-02-02T10:54:34.536Z,12.00
2024-02-02T10:55:35.423Z,13.60
2024-02-02T10:56:36.304Z,12.40
2024-02-02T10:57:37.422Z,13.20
2024-02-02T10:58:37.846Z,12.90
2024-02-02T10:59:38.715Z,13.40
2024-02-02T11:00:39.762Z,13.60
2024-02-02T11:01:40.275Z,13.10
2024-02-02T11:02:41.165Z,14.30
2024-02-02T11:03:42.884Z,13.70
2024-02-02T11:04:42.862Z,14.20
2024-02-02T11:05:43.825Z,13.20
2024-02-02T11:06:44.981Z,13.50
2024-02-02T11:07:45.416Z,12.30
2024-02-02T11:08:46.295Z,13.20
2024-02-02T11:09:47.176Z,13.60
2024-02-02T11:10:48.059Z,12.90
2024-02-02T11:11:48.941Z,12.30
2024-02-02T11:12:49.919Z,13.60
2024-02-02T11:13:50.745Z,12.80
2024-02-02T11:14:51.629Z,13.90
2024-02-02T11:15:52.533Z,13.80
2024-02-02T11:16:53.394Z,13.10
2024-02-02T11:17:54.366Z,14.60
2024-02-02T11:18:55.421Z,12.30
2024-02-02T11:19:55.895Z,13.80
2024-02-02T11:20:56.790Z,14.00
2024-02-02T11:21:57.653Z,13.00
2024-02-02T11:22:58.570Z,11.30
2024-02-02T11:23:59.467Z,14.00
2024-02-02T11:25:00.452Z,14.50
2024-02-02T11:26:01.301Z,14.70
2024-02-02T11:27:02.217Z,14.50
2024-02-02T11:28:03.124Z,15.50
2024-02-02T11:29:03.978Z,14.10
2024-02-02T11:30:04.890Z,14.50
2024-02-02T11:31:05.838Z,15.70
2024-02-02T11:32:06.718Z,15.00
2024-02-02T11:33:07.803Z,15.60
2024-02-02T11:34:08.538Z,14.20
2024-02-02T11:35:08.991Z,13.80
2024-02-02T11:36:09.949Z,14.10
2024-02-02T11:37:10.796Z,12.70
2024-02-02T11:38:11.730Z,14.90
2024-02-02T11:39:12.645Z,16.40
2024-02-02T11:40:13.505Z,16.30
2024-02-02T11:41:14.386Z,16.80
2024-02-02T11:42:15.311Z,16.70
2024-02-02T11:43:16.251Z,16.40
2024-02-02T11:44:17.094Z,16.70
2024-02-02T11:45:18.034Z,17.00
2024-02-02T11:46:18.939Z,16.50
2024-02-02T11:47:19.789Z,16.90
2024-02-02T11:48:20.782Z,18.30
2024-02-02T11:49:21.243Z,17.10
2024-02-02T11:50:22.132Z,16.70
2024-02-02T11:51:23.066Z,16.90
2024-02-02T11:52:23.932Z,16.40
2024-02-02T11:53:24.986Z,17.10
2024-02-02T11:54:25.362Z,17.10
2024-02-02T11:55:26.265Z,18.20
2024-02-02T11:56:27.138Z,17.90
2024-02-02T11:57:28.051Z,18.40
2024-02-02T11:58:29.060Z,14.90
2024-02-02T11:59:29.429Z,15.90
2024-02-02T12:00:30.317Z,18.50
2024-02-02T12:01:31.214Z,17.60
2024-02-02T12:02:32.077Z,18.60
2024-02-02T12:03:33.102Z,19.30
2024-02-02T12:04:33.981Z,18.60
2024-02-02T12:05:34.831Z,18.80
2024-02-02T12:06:35.817Z,19.70
2024-02-02T12:07:36.781Z,19.40
2024-02-02T12:08:37.348Z,20.10
2024-02-02T12:09:37.878Z,20.00
2024-02-02T12:10:38.269Z,20.10
2024-02-02T12:11:44.198Z,19.10
2024-02-02T12:12:40.933Z,19.10
2024-02-02T12:13:40.858Z,18.10
2024-02-02T12:14:41.705Z,19.70
2024-02-02T12:15:42.631Z,20.30
2024-02-02T12:16:43.485Z,17.60
2024-02-02T12:17:44.377Z,12.40
2024-02-02T12:18:45.420Z,18.20
2024-02-02T12:19:46.009Z,19.90
2024-02-02T12:20:46.396Z,20.60
2024-02-02T12:21:47.281Z,19.10
2024-02-02T12:22:48.159Z,16.60
2024-02-02T12:23:49.070Z,21.00
2024-02-02T12:24:49.965Z,20.30
2024-02-02T12:25:50.840Z,20.90
2024-02-02T12:26:51.712Z,18.90
2024-02-02T12:27:52.598Z,20.00
2024-02-02T12:28:53.635Z,20.60
2024-02-02T12:29:54.054Z,18.10
2024-02-02T12:30:54.887Z,17.60
2024-02-02T12:31:55.800Z,21.70
2024-02-02T12:32:56.852Z,21.80
2024-02-02T12:33:57.380Z,20.60
2024-02-02T12:34:57.845Z,18.40
2024-02-02T12:36:04.352Z,22.30
2024-02-02T12:37:00.668Z,22.10
2024-02-02T12:38:00.113Z,19.40
2024-02-02T12:39:01.271Z,21.80
2024-02-02T12:40:01.668Z,23.00
2024-02-02T12:41:02.516Z,18.30
2024-02-02T12:42:04.725Z,21.80
2024-02-02T12:43:04.180Z,19.90
2024-02-02T12:44:05.134Z,20.20
2024-02-02T12:45:06.014Z,23.20
2024-02-02T12:46:06.875Z,21.90
2024-02-02T12:47:07.869Z,20.30
2024-02-02T12:48:08.462Z,23.30
2024-02-02T12:49:09.124Z,22.60
2024-02-02T12:50:09.744Z,15.10
2024-02-02T12:51:10.176Z,21.40
2024-02-02T12:52:11.046Z,17.20
2024-02-02T12:53:11.922Z,22.60
2024-02-02T12:54:12.905Z,22.30
2024-02-02T12:55:13.779Z,21.80
2024-02-02T12:56:14.637Z,23.70
2024-02-02T12:57:15.593Z,23.40
2024-02-02T12:58:16.441Z,18.20
2024-02-02T12:59:17.505Z,18.80
2024-02-02T13:00:17.999Z,20.20
2024-02-02T13:01:18.537Z,16.60
2024-02-02T13:02:18.930Z,24.50
2024-02-02T13:03:19.813Z,18.20
2024-02-02T13:04:20.854Z,22.20
2024-02-02T13:05:21.271Z,20.10
2024-02-02T13:06:22.199Z,21.70
2024-02-02T13:07:23.079Z,19.40
2024-02-02T13:08:23.940Z,20.10
2024-02-02T13:09:24.892Z,23.30
2024-02-02T13:10:25.730Z,21.70
2024-02-02T13:11:26.703Z,24.30
2024-02-02T13:12:27.579Z,23.20
2024-02-02T13:13:28.450Z,22.80
2024-02-02T13:14:29.500Z,24.70
2024-02-02T13:15:29.934Z,23.80
2024-02-02T13:16:30.799Z,21.10
2024-02-02T13:17:31.747Z,24.30
2024-02-02T13:18:32.622Z,25.10
2024-02-02T13:19:33.717Z,24.70
2024-02-02T13:20:34.229Z,24.90
2024-02-02T13:21:35.156Z,24.50
2024-02-02T13:22:36.019Z,22.60
2024-02-02T13:23:36.902Z,19.30
2024-02-02T13:24:37.950Z,25.00
2024-02-02T13:25:38.304Z,24.60
2024-02-02T13:26:39.188Z,23.50
2024-02-02T13:27:40.158Z,25.70
2024-02-02T13:28:41.055Z,25.90
2024-02-02T13:29:42.000Z,25.50
2024-02-02T13:30:42.906Z,24.10
2024-02-02T13:31:43.746Z,26.20
2024-02-02T13:32:44.629Z,26.10
2024-02-02T13:33:47.645Z,26.40
2024-02-02T13:34:46.423Z,25.60
2024-02-02T13:35:46.809Z,25.20
2024-02-02T13:36:47.698Z,25.60
2024-02-02T13:37:48.576Z,25.70
2024-02-02T13:38:49.462Z,26.40
2024-02-02T13:39:50.360Z,23.60
2024-02-02T13:40:51.314Z,22.10
2024-02-02T13:41:52.144Z,23.60
2024-02-02T13:42:53.033Z,25.90
2024-02-02T13:43:53.914Z,18.10
2024-02-02T13:44:54.818Z,25.30
2024-02-02T13:45:55.719Z,20.30
2024-02-02T13:46:56.675Z,25.40
2024-02-02T13:47:57.827Z,24.50
2024-02-02T13:48:58.351Z,26.00
2024-02-02T13:49:58.893Z,26.40
2024-02-02T13:50:59.902Z,25.80
2024-02-02T13:52:00.749Z,25.70
2024-02-02T13:53:01.630Z,25.00
2024-02-02T13:54:02.561Z,27.10
2024-02-02T13:55:03.417Z,26.10
2024-02-02T13:56:04.452Z,18.90
2024-02-02T13:57:04.872Z,26.60
2024-02-02T13:58:05.741Z,25.50
2024-02-02T13:59:06.612Z,25.80
2024-02-02T14:00:07.606Z,26.30
2024-02-02T14:01:08.059Z,24.30
2024-02-02T14:02:08.946Z,24.90
2024-02-02T14:03:09.867Z,23.50
2024-02-02T14:04:10.774Z,26.40
2024-02-02T14:05:11.629Z,25.90
2024-02-02T14:06:12.582Z,26.00
2024-02-02T14:07:13.581Z,26.70
2024-02-02T14:08:14.446Z,26.20
2024-02-02T14:09:15.380Z,25.00
2024-02-02T14:10:16.239Z,26.40
2024-02-02T14:11:17.262Z,27.70
2024-02-02T14:12:17.694Z,27.70
2024-02-02T14:13:18.554Z,26.10
2024-02-02T14:14:19.436Z,28.40
2024-02-02T14:15:20.373Z,27.40
2024-02-02T14:16:21.266Z,24.90
2024-02-02T14:17:22.155Z,27.10
2024-02-02T14:18:23.042Z,26.90
2024-02-02T14:19:23.976Z,26.70
2024-02-02T14:20:24.852Z,26.40
2024-02-02T14:21:25.898Z,22.70
2024-02-02T14:22:26.275Z,24.10
2024-02-02T14:23:27.174Z,24.70
2024-02-02T14:24:28.101Z,26.70
2024-02-02T14:25:28.956Z,26.20
2024-02-02T14:26:29.874Z,25.20
2024-02-02T14:27:30.786Z,24.30
2024-02-02T14:28:31.662Z,24.60
2024-02-02T14:29:32.539Z,26.40
2024-02-02T14:30:33.465Z,24.20
2024-02-02T14:31:34.349Z,27.10
2024-02-02T14:32:35.249Z,26.40
2024-02-02T14:33:36.375Z,24.80
2024-02-02T14:34:36.927Z,25.10
2024-02-02T14:35:37.320Z,23.80
2024-02-02T14:36:38.296Z,26.20
2024-02-02T14:37:38.689Z,25.60
2024-02-02T14:38:39.571Z,25.10
2024-02-02T14:39:40.552Z,25.70
2024-02-02T14:40:41.393Z,24.70
2024-02-02T14:41:42.316Z,26.90
2024-02-02T14:42:43.373Z,26.40
2024-02-02T14:43:43.832Z,27.10
2024-02-02T14:44:44.750Z,27.40
2024-02-02T14:45:45.743Z,27.30
2024-02-02T14:46:46.654Z,21.80
2024-02-02T14:47:47.553Z,24.40
2024-02-02T14:48:48.479Z,26.60
2024-02-02T14:49:49.394Z,26.70
2024-02-02T14:50:50.257Z,27.80
2024-02-02T14:51:51.291Z,19.90
2024-02-02T14:52:51.667Z,22.70
2024-02-02T14:53:52.547Z,26.80
2024-02-02T14:54:53.430Z,27.50
2024-02-02T14:55:54.304Z,26.70
2024-02-02T14:56:55.245Z,27.30
2024-02-02T14:57:56.109Z,28.50
2024-02-02T14:58:57.016Z,24.70
2024-02-02T14:59:58.023Z,28.90
2024-02-02T15:00:58.484Z,27.20
2024-02-02T15:01:59.510Z,28.10
2024-02-02T15:03:00.008Z,29.20
2024-02-02T15:04:00.496Z,29.50
2024-02-02T15:05:02.669Z,28.20
2024-02-02T15:06:01.995Z,23.70
2024-02-02T15:07:02.589Z,27.50
2024-02-02T15:08:02.964Z,27.90
2024-02-02T15:09:03.885Z,28.00
2024-02-02T15:10:04.747Z,28.80
2024-02-02T15:11:05.627Z,30.60
2024-02-02T15:12:06.644Z,30.50
2024-02-02T15:13:07.031Z,30.30
2024-02-02T15:14:07.908Z,26.90
2024-02-02T15:15:08.814Z,29.40
2024-02-02T15:16:09.707Z,31.00
2024-02-02T15:17:10.615Z,29.50
2024-02-02T15:18:11.547Z,31.80
2024-02-02T15:19:12.485Z,30.10
2024-02-02T15:20:13.427Z,25.60
2024-02-02T15:21:14.381Z,29.00
2024-02-02T15:22:15.385Z,33.80
2024-02-02T15:23:15.781Z,32.70
2024-02-02T15:24:16.678Z,34.20
2024-02-02T15:25:17.516Z,26.30
2024-02-02T15:26:18.421Z,32.30
2024-02-02T15:27:19.444Z,35.40
2024-02-02T15:28:19.809Z,27.60